createdAt,value
2022-10-13T00:00:58.043Z,99869.12
2022-10-13T00:03:25.236Z,99869.52
2022-10-13T00:05:52.452Z,99872.61
2022-10-13T00:08:21.293Z,99873.29
2022-10-13T00:10:49.644Z,99867.52
2022-10-13T00:13:20.046Z,99870.00
2022-10-13T00:15:47.617Z,99867.77
2022-10-13T00:18:15.376Z,99867.35
2022-10-13T00:20:52.347Z,99870.29
2022-10-13T00:23:19.395Z,99872.23
2022-10-13T00:25:47.698Z,99871.98
2022-10-13T00:28:15.665Z,99871.02
2022-10-13T00:30:43.041Z,99870.15
2022-10-13T00:33:11.475Z,99869.93
2022-10-13T00:35:48.352Z,99867.77
2022-10-13T00:38:16.731Z,99864.34
2022-10-13T00:40:55.964Z,99867.71
2022-10-13T00:43:27.750Z,99868.36
2022-10-13T00:45:54.768Z,99866.83
2022-10-13T00:48:28.853Z,99864.41
2022-10-13T00:50:56.362Z,99863.73
2022-10-13T00:53:24.304Z,99861.48
2022-10-13T00:55:51.457Z,99862.16
2022-10-13T00:58:19.687Z,99860.50
2022-10-13T01:00:47.706Z,99861.66
2022-10-13T01:03:17.961Z,99859.22
2022-10-13T01:05:44.969Z,99862.06
2022-10-13T01:08:12.529Z,99856.08
2022-10-13T01:10:49.757Z,99858.78
2022-10-13T01:13:28.989Z,99855.88
2022-10-13T01:16:12.287Z,99859.60
2022-10-13T01:18:47.309Z,99856.63
2022-10-13T01:21:33.501Z,99859.36
2022-10-13T01:24:28.223Z,99860.34
2022-10-13T01:27:14.064Z,99860.31
2022-10-13T01:30:04.530Z,99858.66
2022-10-13T01:32:47.695Z,99858.91
2022-10-13T01:35:17.915Z,99851.75
2022-10-13T01:37:54.169Z,99848.29
2022-10-13T01:40:30.834Z,99848.71
2022-10-13T01:42:58.202Z,99848.83
2022-10-13T01:45:29.736Z,99849.92
2022-10-13T01:47:57.028Z,99854.31
2022-10-13T01:50:24.020Z,99849.71
2022-10-13T01:52:51.231Z,99847.64
2022-10-13T01:55:18.269Z,99849.81
2022-10-13T01:57:45.726Z,99850.45
2022-10-13T02:00:15.346Z,99847.20
2022-10-13T02:03:12.969Z,99849.77
2022-10-13T02:05:52.276Z,99855.70
2022-10-13T02:08:26.082Z,99855.30
2022-10-13T02:11:00.852Z,99852.77
2022-10-13T02:13:28.534Z,99852.58
2022-10-13T02:15:58.018Z,99853.52
2022-10-13T02:18:30.761Z,99852.19
2022-10-13T02:20:57.864Z,99850.65
2022-10-13T02:23:24.754Z,99849.41
2022-10-13T02:25:51.859Z,99849.53
2022-10-13T02:28:19.051Z,99853.47
2022-10-13T02:30:46.463Z,99859.70
2022-10-13T02:33:14.519Z,99864.10
2022-10-13T02:35:42.201Z,99858.09
2022-10-13T02:38:09.654Z,99859.48
2022-10-13T02:40:36.888Z,99856.23
2022-10-13T02:43:04.052Z,99849.73
2022-10-13T02:45:31.109Z,99848.10
2022-10-13T02:47:58.478Z,99847.77
2022-10-13T02:50:25.502Z,99846.30
2022-10-13T02:52:53.464Z,99850.35
2022-10-13T02:55:20.725Z,99849.95
2022-10-13T02:57:48.055Z,99846.55
2022-10-13T03:00:15.859Z,99845.63
2022-10-13T03:02:42.992Z,99842.28
2022-10-13T03:05:10.484Z,99844.46
2022-10-13T03:07:37.452Z,99840.70
2022-10-13T03:10:05.367Z,99843.81
2022-10-13T03:12:32.346Z,99848.72
2022-10-13T03:14:59.185Z,99850.81
2022-10-13T03:17:26.251Z,99848.66
2022-10-13T03:19:53.174Z,99848.20
2022-10-13T03:22:20.229Z,99848.20
2022-10-13T03:24:47.462Z,99849.61
2022-10-13T03:27:14.487Z,99850.59
2022-10-13T03:29:41.559Z,99848.77
2022-10-13T03:32:08.787Z,99851.66
2022-10-13T03:34:35.768Z,99847.50
2022-10-13T03:37:02.777Z,99845.52
2022-10-13T03:39:33.415Z,99847.31
2022-10-13T03:42:00.324Z,99848.58
2022-10-13T03:44:27.405Z,99846.17
2022-10-13T03:46:54.245Z,99843.73
2022-10-13T03:49:21.211Z,99843.27
2022-10-13T03:51:48.349Z,99838.79
2022-10-13T03:54:15.326Z,99835.89
2022-10-13T03:56:43.660Z,99841.84
2022-10-13T03:59:12.106Z,99839.19
2022-10-13T04:01:39.321Z,99841.77
2022-10-13T04:04:08.060Z,99838.29
2022-10-13T04:06:35.009Z,99838.58
2022-10-13T04:09:01.984Z,99836.04
2022-10-13T04:11:29.082Z,99838.64
2022-10-13T04:13:57.495Z,99845.38
2022-10-13T04:16:29.345Z,99838.30
2022-10-13T04:18:58.901Z,99837.02
2022-10-13T04:21:26.215Z,99837.58
2022-10-13T04:23:57.561Z,99842.20
2022-10-13T04:26:26.006Z,99840.75
2022-10-13T04:28:53.888Z,99843.64
2022-10-13T04:31:22.326Z,99846.94
2022-10-13T04:33:50.112Z,99842.67
2022-10-13T04:36:17.101Z,99843.44
2022-10-13T04:38:45.160Z,99842.77
2022-10-13T04:41:12.758Z,99845.66
2022-10-13T04:43:39.777Z,99846.61
2022-10-13T04:46:14.035Z,99850.27
2022-10-13T04:48:41.142Z,99851.00
2022-10-13T04:51:10.338Z,99846.81
2022-10-13T04:53:37.507Z,99848.85
2022-10-13T04:56:09.473Z,99848.70
2022-10-13T04:58:36.822Z,99846.01
2022-10-13T05:01:05.445Z,99847.75
2022-10-13T05:03:33.254Z,99850.96
2022-10-13T05:06:00.299Z,99850.25
2022-10-13T05:08:27.252Z,99851.80
2022-10-13T05:10:55.219Z,99851.50
2022-10-13T05:13:22.790Z,99853.73
2022-10-13T05:15:50.240Z,99853.00
2022-10-13T05:18:18.916Z,99856.25
2022-10-13T05:20:47.089Z,99855.08
2022-10-13T05:23:14.680Z,99853.67
2022-10-13T05:25:41.677Z,99857.01
2022-10-13T05:28:11.004Z,99860.52
2022-10-13T05:30:38.197Z,99862.09
2022-10-13T05:33:05.503Z,99857.12
2022-10-13T05:35:32.432Z,99858.83
2022-10-13T05:37:59.495Z,99864.21
2022-10-13T05:40:26.852Z,99864.13
2022-10-13T05:42:56.456Z,99863.83
2022-10-13T05:45:23.507Z,99866.45
2022-10-13T05:47:50.546Z,99868.65
2022-10-13T05:50:17.705Z,99864.95
2022-10-13T05:52:44.755Z,99867.98
2022-10-13T05:55:11.794Z,99867.07
2022-10-13T05:57:42.665Z,99869.35
2022-10-13T06:00:12.213Z,99870.14
2022-10-13T06:02:44.550Z,99868.25
2022-10-13T06:05:14.186Z,99872.58
2022-10-13T06:07:41.265Z,99872.04
2022-10-13T06:10:09.085Z,99876.82
2022-10-13T06:12:36.483Z,99875.73
2022-10-13T06:15:04.756Z,99877.86
2022-10-13T06:17:31.640Z,99878.11
2022-10-13T06:20:00.216Z,99877.20
2022-10-13T06:22:27.191Z,99879.98
2022-10-13T06:24:54.277Z,99882.08
2022-10-13T06:27:21.327Z,99885.80
2022-10-13T06:29:49.908Z,99889.74
2022-10-13T06:32:17.334Z,99890.06
2022-10-13T06:34:44.685Z,99892.71
2022-10-13T06:37:11.774Z,99895.70
2022-10-13T06:39:38.791Z,99895.22
2022-10-13T06:42:05.871Z,99897.27
2022-10-13T06:44:37.833Z,99899.77
2022-10-13T06:47:05.685Z,99898.77
2022-10-13T06:49:32.742Z,99900.27
2022-10-13T06:51:59.682Z,99896.65
2022-10-13T06:54:26.761Z,99893.40
2022-10-13T06:56:53.880Z,99892.25
2022-10-13T06:59:21.429Z,99892.65
2022-10-13T07:01:49.104Z,99894.18
2022-10-13T07:04:16.884Z,99890.56
2022-10-13T07:06:43.928Z,99889.67
2022-10-13T07:09:10.961Z,99887.81
2022-10-13T07:11:39.028Z,99889.34
2022-10-13T07:14:06.077Z,99891.63
2022-10-13T07:16:33.105Z,99886.55
2022-10-13T07:19:01.827Z,99886.16
2022-10-13T07:21:30.496Z,99890.22
2022-10-13T07:23:57.429Z,99888.40
2022-10-13T07:26:25.212Z,99886.50
2022-10-13T07:28:52.196Z,99885.76
2022-10-13T07:31:20.341Z,99883.59
2022-10-13T07:33:49.281Z,99884.81
2022-10-13T07:36:16.845Z,99886.19
2022-10-13T07:38:43.821Z,99884.35
2022-10-13T07:41:11.265Z,99885.22
2022-10-13T07:43:38.427Z,99884.23
2022-10-13T07:46:08.246Z,99883.98
2022-10-13T07:48:35.393Z,99885.58
2022-10-13T07:51:10.757Z,99885.51
2022-10-13T07:53:40.511Z,99886.28
2022-10-13T07:56:09.109Z,99889.70
2022-10-13T07:58:37.552Z,99889.16
2022-10-13T08:01:04.864Z,99888.94
2022-10-13T08:03:33.079Z,99890.77
2022-10-13T08:06:00.723Z,99891.66
2022-10-13T08:08:27.975Z,99892.58
2022-10-13T08:10:55.047Z,99892.23
2022-10-13T08:13:23.796Z,99889.02
2022-10-13T08:15:50.720Z,99889.44
2022-10-13T08:18:57.060Z,99890.65
2022-10-13T08:24:16.386Z,99894.43
2022-10-13T08:26:44.392Z,99897.62
2022-10-13T08:29:27.019Z,99898.50
2022-10-13T08:31:54.629Z,99895.27
2022-10-13T08:34:27.471Z,99895.39
2022-10-13T08:36:56.793Z,99893.70
2022-10-13T08:39:24.794Z,99896.39
2022-10-13T08:41:52.166Z,99895.90
2022-10-13T08:47:28.933Z,99895.74
2022-10-13T08:50:00.274Z,99897.19
2022-10-13T08:52:29.899Z,99894.83
2022-10-13T08:54:57.554Z,99895.77
2022-10-13T08:57:30.272Z,99897.60
2022-10-13T08:59:59.386Z,99897.38
2022-10-13T09:02:32.919Z,99894.15
2022-10-13T09:05:05.931Z,99893.01
2022-10-13T09:07:39.509Z,99890.77
2022-10-13T09:10:08.997Z,99894.52
2022-10-13T09:12:37.967Z,99892.23
2022-10-13T09:15:11.861Z,99892.66
2022-10-13T09:17:42.098Z,99889.73
2022-10-13T09:20:28.293Z,99886.30
2022-10-13T09:23:03.552Z,99888.07
2022-10-13T09:25:43.170Z,99882.88
2022-10-13T09:28:23.382Z,99887.41
2022-10-13T09:31:11.690Z,99881.33
2022-10-13T09:33:42.859Z,99882.35
2022-10-13T09:36:15.865Z,99882.95
2022-10-13T09:39:22.459Z,99881.99
2022-10-13T09:41:51.311Z,99874.38
2022-10-13T09:44:28.506Z,99882.01
2022-10-13T09:46:58.145Z,99876.13
2022-10-13T09:49:38.534Z,99871.71
2022-10-13T09:52:20.482Z,99868.79
2022-10-13T09:54:53.677Z,99865.23
2022-10-13T09:57:25.183Z,99860.16
2022-10-13T10:00:06.505Z,99860.57
2022-10-13T10:03:09.934Z,99857.18
2022-10-13T10:05:51.461Z,99857.95
2022-10-13T10:09:02.813Z,99852.57
2022-10-13T10:11:45.151Z,99851.09
2022-10-13T10:14:39.847Z,99851.22
2022-10-13T10:17:31.821Z,99851.03
2022-10-13T10:20:21.928Z,99851.78
2022-10-13T10:22:54.032Z,99845.05
2022-10-13T10:25:42.965Z,99849.21
2022-10-13T10:28:36.717Z,99845.13
2022-10-13T10:31:53.178Z,99850.43
2022-10-13T10:34:27.513Z,99845.90
2022-10-13T10:37:13.717Z,99846.30
2022-10-13T10:39:48.640Z,99839.98
2022-10-13T10:42:51.845Z,99838.83
2022-10-13T10:45:25.399Z,99833.80
2022-10-13T10:47:56.189Z,99834.13
2022-10-13T10:50:24.455Z,99834.05
2022-10-13T10:53:01.223Z,99830.27
2022-10-13T10:55:50.186Z,99831.38
2022-10-13T10:58:49.531Z,99830.20
2022-10-13T11:01:32.958Z,99827.23
2022-10-13T11:04:25.881Z,99827.02
2022-10-13T11:06:53.229Z,99825.02
2022-10-13T11:09:41.482Z,99825.17
2022-10-13T11:12:21.778Z,99825.40
2022-10-13T11:15:11.100Z,99822.06
2022-10-13T11:17:39.695Z,99821.89
2022-10-13T11:20:36.121Z,99822.64
2022-10-13T11:23:03.374Z,99824.77
2022-10-13T11:25:44.042Z,99822.48
2022-10-13T11:28:23.934Z,99821.13
2022-10-13T11:30:55.647Z,99823.18
2022-10-13T11:33:38.307Z,99820.86
2022-10-13T11:36:43.422Z,99822.91
2022-10-13T11:42:21.802Z,99816.23
2022-10-13T11:44:52.462Z,99812.90
2022-10-13T11:47:38.556Z,99807.45
2022-10-13T11:50:44.621Z,99807.54
2022-10-13T11:53:14.842Z,99805.73
2022-10-13T11:55:58.788Z,99801.98
2022-10-13T11:58:30.529Z,99805.59
2022-10-13T12:01:01.688Z,99805.42
2022-10-13T12:03:39.091Z,99801.80
2022-10-13T12:06:35.923Z,99793.21
2022-10-13T12:09:05.599Z,99786.52
2022-10-13T12:11:34.469Z,99789.19
2022-10-13T12:14:02.497Z,99789.05
2022-10-13T12:16:30.256Z,99788.80
2022-10-13T12:19:08.518Z,99783.23
2022-10-13T12:21:48.721Z,99778.48
2022-10-13T12:24:15.877Z,99778.90
2022-10-13T12:26:43.123Z,99772.98
2022-10-13T12:29:17.482Z,99772.45
2022-10-13T12:31:46.233Z,99769.96
2022-10-13T12:34:25.673Z,99769.38
2022-10-13T12:36:56.209Z,99769.63
2022-10-13T12:39:25.402Z,99769.83
2022-10-13T12:41:52.646Z,99769.55
2022-10-13T12:44:30.635Z,99766.41
2022-10-13T12:46:59.558Z,99763.20
2022-10-13T12:49:36.253Z,99761.19
2022-10-13T12:52:09.315Z,99763.23
2022-10-13T12:54:41.224Z,99761.13
2022-10-13T12:57:19.893Z,99755.27
2022-10-13T12:59:46.913Z,99757.13
2022-10-13T13:02:30.943Z,99756.18
2022-10-13T13:04:58.028Z,99755.59
2022-10-13T13:07:29.579Z,99755.27
2022-10-13T13:10:18.544Z,99753.94
2022-10-13T13:12:46.404Z,99752.65
2022-10-13T13:15:25.739Z,99749.59
2022-10-13T13:17:59.004Z,99748.80
2022-10-13T13:20:31.868Z,99749.12
2022-10-13T13:22:59.169Z,99753.61
2022-10-13T13:25:26.108Z,99754.05
2022-10-13T13:27:53.367Z,99753.31
2022-10-13T13:30:21.619Z,99752.45
2022-10-13T13:32:48.806Z,99748.42
2022-10-13T13:35:15.941Z,99749.27
2022-10-13T13:37:48.109Z,99749.62
2022-10-13T13:40:17.629Z,99745.11
2022-10-13T13:42:44.664Z,99744.48
2022-10-13T13:45:15.842Z,99742.02
2022-10-13T13:47:42.975Z,99742.88
2022-10-13T13:50:21.476Z,99741.13
2022-10-13T13:52:57.221Z,99738.20
2022-10-13T13:55:24.921Z,99735.64
2022-10-13T13:57:51.940Z,99734.60
2022-10-13T14:00:19.263Z,99733.02
2022-10-13T14:02:49.839Z,99731.67
2022-10-13T14:05:17.278Z,99731.27
2022-10-13T14:07:44.182Z,99730.10
2022-10-13T14:10:11.370Z,99729.21
2022-10-13T14:12:38.413Z,99728.55
2022-10-13T14:15:06.327Z,99728.49
2022-10-13T14:17:33.435Z,99728.56
2022-10-13T14:20:00.673Z,99725.55
2022-10-13T14:22:27.713Z,99725.77
2022-10-13T14:24:55.088Z,99722.71
2022-10-13T14:27:22.062Z,99718.16
2022-10-13T14:29:49.078Z,99713.40
2022-10-13T14:32:16.879Z,99715.53
2022-10-13T14:34:43.994Z,99713.02
2022-10-13T14:37:11.016Z,99714.86
2022-10-13T14:39:38.018Z,99716.48
2022-10-13T14:42:05.039Z,99717.45
2022-10-13T14:44:31.999Z,99718.55
2022-10-13T14:46:58.927Z,99716.65
2022-10-13T14:49:26.213Z,99718.55
2022-10-13T14:51:53.323Z,99714.98
2022-10-13T14:54:20.249Z,99708.76
2022-10-13T14:56:47.229Z,99715.13
2022-10-13T14:59:14.165Z,99714.63
2022-10-13T15:01:42.163Z,99714.90
2022-10-13T15:04:09.205Z,99715.27
2022-10-13T15:06:41.239Z,99709.63
2022-10-13T15:11:36.561Z,99706.90
2022-10-13T15:14:03.555Z,99708.35
2022-10-13T15:16:33.390Z,99702.70
2022-10-13T15:19:00.780Z,99704.31
2022-10-13T15:21:28.073Z,99706.78
2022-10-13T15:23:56.240Z,99705.86
2022-10-13T15:26:23.250Z,99708.34
2022-10-13T15:31:05.678Z,99702.46
2022-10-13T15:33:33.028Z,99699.27
2022-10-13T15:35:59.956Z,99701.55
2022-10-13T15:38:27.129Z,99699.99
2022-10-13T15:40:59.594Z,99700.13
2022-10-13T15:43:27.094Z,99699.02
2022-10-13T15:45:56.046Z,99697.63
2022-10-13T15:48:23.294Z,99698.19
2022-10-13T15:50:50.264Z,99696.01
2022-10-13T15:53:17.501Z,99696.73
2022-10-13T15:55:44.546Z,99698.77
2022-10-13T15:58:13.958Z,99701.74
2022-10-13T16:00:41.516Z,99699.78
2022-10-13T16:03:15.295Z,99698.95
2022-10-13T16:05:43.498Z,99699.87
2022-10-13T16:08:10.732Z,99698.66
2022-10-13T16:10:42.089Z,99696.70
2022-10-13T16:13:10.357Z,99691.23
2022-10-13T16:15:37.405Z,99692.33
2022-10-13T16:18:04.573Z,99690.08
2022-10-13T16:20:37.830Z,99692.05
2022-10-13T16:23:05.158Z,99689.20
2022-10-13T16:25:32.366Z,99692.84
2022-10-13T16:28:00.099Z,99697.93
2022-10-13T16:30:28.085Z,99699.63
2022-10-13T16:32:55.161Z,99695.95
2022-10-13T16:35:23.303Z,99695.80
2022-10-13T16:37:50.317Z,99696.11
2022-10-13T16:40:17.613Z,99698.90
2022-10-13T16:42:45.678Z,99696.25
2022-10-13T16:45:13.543Z,99699.10
2022-10-13T16:47:40.593Z,99698.64
2022-10-13T16:50:09.970Z,99702.04
2022-10-13T16:52:38.007Z,99704.66
2022-10-13T16:55:05.725Z,99706.33
2022-10-13T16:57:32.994Z,99706.39
2022-10-13T17:00:00.049Z,99708.29
2022-10-13T17:02:28.557Z,99706.35
2022-10-13T17:04:55.551Z,99709.23
2022-10-13T17:07:22.959Z,99708.60
2022-10-13T17:09:50.368Z,99706.20
2022-10-13T17:12:18.132Z,99705.45
2022-10-13T17:14:45.298Z,99707.27
2022-10-13T17:17:12.431Z,99703.48
2022-10-13T17:19:39.617Z,99704.54
2022-10-13T17:22:06.621Z,99705.73
2022-10-13T17:24:33.670Z,99703.41
2022-10-13T17:27:00.735Z,99700.96
2022-10-13T17:29:28.589Z,99698.80
2022-10-13T17:31:56.251Z,99696.05
2022-10-13T17:34:23.113Z,99698.93
2022-10-13T17:36:51.654Z,99697.85
2022-10-13T17:39:18.720Z,99695.67
2022-10-13T17:41:45.765Z,99698.27
2022-10-13T17:44:13.180Z,99697.62
2022-10-13T17:46:40.302Z,99700.65
2022-10-13T17:49:08.141Z,99706.18
2022-10-13T17:51:35.313Z,99700.40
2022-10-13T17:54:02.534Z,99700.26
2022-10-13T17:56:30.033Z,99701.29
2022-10-13T17:58:57.144Z,99697.20
2022-10-13T18:01:26.594Z,99695.94
2022-10-13T18:03:55.487Z,99694.58
2022-10-13T18:06:32.626Z,99701.08
2022-10-13T18:09:05.930Z,99698.70
2022-10-13T18:11:34.239Z,99698.77
2022-10-13T18:14:01.139Z,99698.77
2022-10-13T18:16:28.184Z,99698.84
2022-10-13T18:18:55.457Z,99701.23
2022-10-13T18:21:24.322Z,99699.50
2022-10-13T18:23:52.200Z,99701.70
2022-10-13T18:26:19.760Z,99702.98
2022-10-13T18:28:47.546Z,99701.92
2022-10-13T18:31:21.831Z,99700.61
2022-10-13T18:33:52.075Z,99703.65
2022-10-13T18:36:23.498Z,99700.73
2022-10-13T18:38:51.685Z,99702.41
2022-10-13T18:41:19.464Z,99701.23
2022-10-13T18:43:46.493Z,99702.48
2022-10-13T18:46:14.184Z,99699.95
2022-10-13T18:48:41.221Z,99703.65
2022-10-13T18:51:13.057Z,99707.83
2022-10-13T18:53:41.977Z,99707.14
2022-10-13T19:03:47.300Z,99705.51
2022-10-13T19:06:15.393Z,99702.73
2022-10-13T19:08:43.393Z,99705.39
2022-10-13T19:11:16.579Z,99701.45
2022-10-13T19:13:44.337Z,99701.95
2022-10-13T19:16:15.624Z,99700.66
2022-10-13T19:18:42.754Z,99697.98
2022-10-13T19:21:09.991Z,99699.79
2022-10-13T19:23:37.157Z,99699.98
2022-10-13T19:26:13.900Z,99699.62
2022-10-13T19:28:42.573Z,99700.68
2022-10-13T19:31:11.312Z,99702.24
2022-10-13T19:33:44.223Z,99700.73
2022-10-13T19:36:12.545Z,99704.15
2022-10-13T19:38:39.553Z,99701.79
2022-10-13T19:41:07.042Z,99702.09
2022-10-13T19:43:34.004Z,99701.27
2022-10-13T19:46:00.941Z,99701.63
2022-10-13T19:48:28.617Z,99701.27
2022-10-13T19:50:55.674Z,99702.27
2022-10-13T19:53:22.686Z,99703.42
2022-10-13T19:55:50.044Z,99705.15
2022-10-13T19:58:17.194Z,99702.77
2022-10-13T20:00:45.089Z,99703.15
2022-10-13T20:03:13.288Z,99702.69
2022-10-13T20:05:42.242Z,99698.95
2022-10-13T20:08:10.393Z,99698.92
2022-10-13T20:10:41.118Z,99701.74
2022-10-13T20:13:08.815Z,99700.08
2022-10-13T20:15:42.850Z,99702.27
2022-10-13T20:18:13.078Z,99705.55
2022-10-13T20:20:41.141Z,99701.67
2022-10-13T20:23:09.170Z,99696.23
2022-10-13T20:25:39.185Z,99698.17
2022-10-13T20:28:06.235Z,99699.67
2022-10-13T20:30:33.536Z,99701.73
2022-10-13T20:33:00.941Z,99699.18
2022-10-13T20:35:28.071Z,99699.05
2022-10-13T20:37:55.168Z,99697.86
2022-10-13T20:40:22.590Z,99698.89
2022-10-13T20:42:51.524Z,99697.13
2022-10-13T20:45:20.279Z,99698.05
2022-10-13T20:47:48.860Z,99699.08
2022-10-13T20:50:16.006Z,99702.44
2022-10-13T20:52:43.048Z,99700.52
2022-10-13T20:55:10.554Z,99700.58
2022-10-13T20:57:37.549Z,99703.08
2022-10-13T21:00:05.840Z,99698.72
2022-10-13T21:02:32.793Z,99702.27
2022-10-13T21:04:59.820Z,99699.48
2022-10-13T21:07:28.709Z,99699.70
2022-10-13T21:09:55.656Z,99695.09
2022-10-13T21:12:22.590Z,99693.41
2022-10-13T21:14:49.875Z,99690.04
2022-10-13T21:17:17.008Z,99688.73
2022-10-13T21:19:44.089Z,99686.16
2022-10-13T21:22:11.195Z,99685.29
2022-10-13T21:24:38.122Z,99690.20
2022-10-13T21:27:05.096Z,99689.95
2022-10-13T21:29:33.060Z,99688.27
2022-10-13T21:32:00.208Z,99688.70
2022-10-13T21:34:27.252Z,99689.27
2022-10-13T21:36:54.141Z,99687.18
2022-10-13T21:39:21.082Z,99688.98
2022-10-13T21:41:48.189Z,99687.96
2022-10-13T21:44:15.233Z,99688.90
2022-10-13T21:46:42.279Z,99692.45
2022-10-13T21:49:09.742Z,99691.64
2022-10-13T21:51:38.225Z,99689.00
2022-10-13T21:54:11.049Z,99696.85
2022-10-13T21:56:38.456Z,99694.48
2022-10-13T21:59:05.348Z,99695.80
2022-10-13T22:01:32.756Z,99691.73
2022-10-13T22:04:00.950Z,99693.21
2022-10-13T22:06:28.596Z,99692.20
2022-10-13T22:08:56.939Z,99688.43
2022-10-13T22:11:25.877Z,99688.70
2022-10-13T22:13:52.906Z,99687.64
2022-10-13T22:16:21.682Z,99687.11
2022-10-13T22:18:48.862Z,99683.11
2022-10-13T22:21:17.978Z,99683.34
2022-10-13T22:23:45.306Z,99686.71
2022-10-13T22:26:12.853Z,99685.85
2022-10-13T22:28:39.899Z,99684.46
2022-10-13T22:31:12.149Z,99680.29
2022-10-13T22:33:40.045Z,99680.23
2022-10-13T22:36:12.573Z,99680.47
2022-10-13T22:38:39.387Z,99679.29
2022-10-13T22:41:07.542Z,99676.00
2022-10-13T22:43:34.797Z,99676.12
2022-10-13T22:46:12.267Z,99675.25
2022-10-13T22:48:40.970Z,99678.95
2022-10-13T22:51:19.680Z,99681.50
2022-10-13T22:53:46.748Z,99680.55
2022-10-13T22:56:15.919Z,99679.41
2022-10-13T22:58:42.865Z,99675.86
2022-10-13T23:01:11.705Z,99678.40
2022-10-13T23:03:38.977Z,99675.45
2022-10-13T23:06:06.961Z,99678.44
2022-10-13T23:08:34.239Z,99680.14
2022-10-13T23:11:01.586Z,99679.42
2022-10-13T23:13:28.487Z,99680.52
2022-10-13T23:16:08.325Z,99677.80
2022-10-13T23:18:38.390Z,99677.54
2022-10-13T23:21:06.736Z,99678.88
2022-10-13T23:23:34.329Z,99680.90
2022-10-13T23:26:03.612Z,99677.95
2022-10-13T23:28:31.434Z,99680.61
2022-10-13T23:31:02.540Z,99681.28
2022-10-13T23:33:29.887Z,99678.89
2022-10-13T23:35:57.575Z,99678.32
2022-10-13T23:38:24.902Z,99677.91
2022-10-13T23:40:52.050Z,99675.86
2022-10-13T23:43:19.610Z,99674.45
2022-10-13T23:45:46.659Z,99676.57
2022-10-13T23:48:14.034Z,99668.41
2022-10-13T23:50:41.168Z,99672.75
2022-10-13T23:53:08.242Z,99671.54
2022-10-13T23:55:39.199Z,99672.72
2022-10-13T23:58:06.285Z,99670.31
